Edmonton City Centre Airport, Alberta

Past 24 Hour Conditions

This table is a summary of hourly weather conditions for the past 24 hours. This summary includes the following parameters: temperature, humidity, dew point, wind speed and direction, air pressure, visibility and/or wind chill and humidex.
Date / Time
(MDT)
Conditions Temp (°C) Humidity (%) Dew Point (°C) Wind (km/h) Pressure (kPa) Vis (km) Humidex
23 September 2014
6:00 Clear 12 82 9 WNW 11 101.1 15 *
5:00 Clear 14 79 11 WNW 15 101.1 15 *
4:00 Clear 15 73 10 WNW 17 101.0 15 *
3:00 Clear 16 69 11 W 15 100.9 15 *
2:00 Clear 16 67 10 WNW 7 100.8 15 *
1:00 Clear 18 62 11 NW 15 100.7 15 *
00:00 Clear 18 60 10 WNW 17 100.7 15 *
22 September 2014
23:00 Clear 19 51 9 W 19 100.7 15 *
22:00 Clear 20 46 8 calm 100.6 15 *
21:00 Clear 20 44 8 calm 100.6 15 *
20:00 Clear 20 44 8 ESE 6 100.6 15 *
19:00 Sunny 25 30 7 W 4 100.6 15 *
18:00 Sunny 27 29 7 WNW 9 100.6 15 27
17:00 Sunny 27 27 7 WNW 11 100.6 15 *
16:00 Sunny 29   25 7 WNW 9 100.6 15 *
15:00 Sunny 28 28 8 WNW 9 100.6 15 29
14:00 Sunny 28 29 8 WSW 13 100.7 15 28
13:00 Sunny 27 31 8 WNW 15 100.7 15 27
12:00 Sunny 24 37 8 W 13 100.7 15 25
11:00 Sunny 22 42 9 WSW 13 100.7 15 *
10:00 Sunny 18 56 9 SSW 7 100.7 15 *
9:00 Sunny 15 64 9 SSW 6 100.7 15 *
8:00 Sunny 11 79 8 WSW 7 100.7 15 *
7:00 Clear 10   84 7 SSW 7 100.7 15 *
6:00 Clear 10   83 7 SSW 4 100.7 15 *
N/A
Not available
 ↑ 
Highest temperature
 ↓ 
Lowest temperature
*
Value not significant.

If you require additional historical weather information, please visit Climate Data Online.